Clay, Alabama
Current Conditions -  °F | °C
As of 12:53 PM on Thursday 23 Oct 2014 (Local Time) from KBHM Reporting Station
Scattered Clouds Scattered Clouds  
Wind Chill: 68°   Ceiling: Unl
Heat Index: 68°   Visibility: 10mi
Dew Point: 40°   Wind: 5mph
Humidity: 36%   Direction: 340°NNW
Pressure: 30.13"   Gusts: NA
Location:  33.7°N, 86.6°W
Report Text: KBHM 231753Z 34004KT 10SM SCT250 20/04 A3013 RMK AO2 SLP200 T02000044 10200 20050 58021
Loading
Personal Weather Stations






























Interactive Weather Map
Tropical Storm Tracking
New forecast layout! Learn more

10-Day Weather Forecast

Advertisements
Track Severe Weather on mobile